Time;durP1;ratioP1;P1;durP2;ratioP2;P2;SDS_P1;SDS_P2;PMS_P1;PMS_P2;Temp;Humidity;BMP_temperature;BMP_pressure;BME280_temperature;BME280_humidity;BME280_pressure;Samples;Min_cycle;Max_cycle;Signal;HPM_P1;HPM_P2
2024/02/08 00:01:30;;;;;;;3.90;2.50;;;;;;;1.90;99.37;99371.13;106179;1270;98580;-80
2024/02/08 00:04:15;;;;;;;5.40;3.40;;;;;;;1.86;99.20;99372.60;106263;1264;101450;-81
2024/02/08 00:07:01;;;;;;;7.50;3.00;;;;;;;1.81;99.19;99375.23;106312;1264;99087;-81
2024/02/08 00:09:46;;;;;;;6.80;2.60;;;;;;;1.77;98.93;99375.58;106250;1264;99085;-80
2024/02/08 00:12:32;;;;;;;4.60;2.30;;;;;;;1.72;98.61;99378.02;106221;1264;98524;-81
2024/02/08 00:15:17;;;;;;;6.70;3.00;;;;;;;1.69;98.73;99382.31;106242;1265;96453;-81
2024/02/08 00:18:03;;;;;;;7.30;2.60;;;;;;;1.68;98.38;99385.67;106236;1264;101441;-81
2024/02/08 00:20:49;;;;;;;6.30;2.90;;;;;;;1.65;98.18;99388.11;106171;1264;99133;-80
2024/02/08 00:23:36;;;;;;;4.50;2.30;;;;;;;1.61;97.97;99391.65;106166;1270;98569;-80
2024/02/08 00:26:22;;;;;;;4.10;2.40;;;;;;;1.59;97.96;99392.05;106103;1264;98054;-81
2024/02/08 00:29:08;;;;;;;3.90;2.60;;;;;;;1.58;97.85;99397.25;106216;1264;98554;-81
2024/02/08 00:31:54;;;;;;;3.70;2.40;;;;;;;1.58;97.86;99400.09;106290;1267;102129;-82
2024/02/08 00:34:40;;;;;;;10.60;2.90;;;;;;;1.57;97.59;99401.57;106303;1264;100400;-82
2024/02/08 00:37:26;;;;;;;5.70;2.50;;;;;;;1.58;97.66;99400.99;106262;1270;97891;-80
2024/02/08 00:40:13;;;;;;;6.80;3.10;;;;;;;1.57;97.50;99400.39;106327;1264;97892;-81
2024/02/08 00:42:58;;;;;;;7.00;2.80;;;;;;;1.54;97.43;99399.38;106177;1269;97997;-81
2024/02/08 00:45:44;;;;;;;5.50;2.80;;;;;;;1.51;97.18;99402.02;106266;1264;102604;-81
2024/02/08 00:48:30;;;;;;;8.60;3.30;;;;;;;1.47;97.07;99408.08;106245;1265;101001;-80
2024/02/08 00:51:16;;;;;;;7.70;3.20;;;;;;;1.45;97.21;99414.94;106271;1263;97940;-81
2024/02/08 00:54:02;;;;;;;7.10;3.30;;;;;;;1.45;97.31;99414.05;106276;1264;96074;-81
2024/02/08 00:56:49;;;;;;;14.80;6.80;;;;;;;1.46;97.23;99415.73;106251;1264;97793;-79
2024/02/08 00:59:39;;;;;;;7.70;4.40;;;;;;;1.44;97.05;99419.28;106272;1264;102428;-81
2024/02/08 01:02:26;;;;;;;5.90;4.00;;;;;;;1.41;97.04;99425.86;106294;1268;100408;-81
2024/02/08 01:05:12;;;;;;;7.40;4.50;;;;;;;1.40;97.07;99430.55;106105;1264;97994;-80
2024/02/08 01:08:00;;;;;;;10.60;6.20;;;;;;;1.40;97.03;99433.98;106351;1264;97998;-80
2024/02/08 01:10:45;;;;;;;12.40;5.30;;;;;;;1.41;96.99;99433.45;106303;1263;98864;-80
2024/02/08 01:13:31;;;;;;;5.20;4.00;;;;;;;1.40;96.84;99437.97;106235;1265;101371;-81
2024/02/08 01:16:17;;;;;;;4.60;3.60;;;;;;;1.39;96.74;99440.23;106316;1263;100454;-80
2024/02/08 01:19:04;;;;;;;7.70;4.40;;;;;;;1.36;96.45;99439.50;106271;1267;97988;-83
2024/02/08 01:21:50;;;;;;;5.40;2.70;;;;;;;1.32;96.54;99445.15;106313;1264;97983;-80
2024/02/08 01:24:35;;;;;;;7.60;3.30;;;;;;;1.29;96.32;99441.36;106384;1265;98466;-81
2024/02/08 01:27:21;;;;;;;6.10;3.30;;;;;;;1.26;95.99;99442.83;106179;1264;102722;-80
2024/02/08 01:30:08;;;;;;;5.00;3.20;;;;;;;1.25;96.40;99446.42;106258;1269;99101;-80
2024/02/08 01:32:54;;;;;;;5.20;3.50;;;;;;;1.27;96.41;99447.77;106299;1270;99041;-81
2024/02/08 01:35:40;;;;;;;5.20;3.10;;;;;;;1.29;96.58;99444.73;106701;1270;97943;-80
2024/02/08 01:38:27;;;;;;;8.00;3.60;;;;;;;1.29;96.51;99444.20;106217;1264;98510;-81
2024/02/08 01:41:14;;;;;;;6.40;3.60;;;;;;;1.30;96.50;99445.54;106273;1265;101433;-81
2024/02/08 01:44:04;;;;;;;5.80;3.10;;;;;;;1.30;96.44;99444.58;106205;1265;99334;-81
2024/02/08 01:46:51;;;;;;;21.00;6.80;;;;;;;1.31;96.47;99444.94;106328;1270;97998;-81
2024/02/08 01:49:36;;;;;;;29.60;9.20;;;;;;;1.32;96.48;99446.76;106243;1265;97915;-81
2024/02/08 01:52:22;;;;;;;44.30;10.30;;;;;;;1.31;96.47;99453.31;106352;1265;95807;-82
2024/02/08 01:55:08;;;;;;;46.60;12.30;;;;;;;1.30;96.37;99452.95;106345;1268;102619;-80
2024/02/08 01:57:54;;;;;;;33.20;10.20;;;;;;;1.29;96.33;99451.79;106433;1267;99244;-81
2024/02/08 02:00:40;;;;;;;22.60;7.80;;;;;;;1.26;96.27;99451.27;106189;1264;97902;-81
2024/02/08 02:03:31;;;;;;;17.30;6.30;;;;;;;1.22;96.06;99454.64;106197;1265;98568;-82
2024/02/08 02:06:17;;;;;;;12.30;5.40;;;;;;;1.18;96.21;99455.52;106298;1264;97982;-82
2024/02/08 02:09:02;;;;;;;11.30;4.40;;;;;;;1.18;96.51;99456.65;106216;1270;102778;-81
2024/02/08 02:11:55;;;;;;;5.50;3.20;;;;;;;1.19;96.61;99454.19;106367;1269;99186;-81
2024/02/08 02:14:41;;;;;;;6.30;3.40;;;;;;;1.18;96.39;99449.77;106351;1267;99212;-82
2024/02/08 02:17:27;;;;;;;9.00;4.30;;;;;;;1.17;96.70;99451.05;106403;1269;97772;-82
2024/02/08 02:20:18;;;;;;;8.50;4.20;;;;;;;1.18;96.73;99452.05;106316;1265;98512;-82
2024/02/08 02:23:09;;;;;;;7.00;3.70;;;;;;;1.18;96.85;99451.90;106279;1264;101554;-81
2024/02/08 02:25:54;;;;;;;9.00;4.00;;;;;;;1.17;96.89;99450.88;106411;1269;99186;-82
2024/02/08 02:28:42;;;;;;;7.90;4.70;;;;;;;1.17;96.71;99450.75;106255;1263;98202;-80
2024/02/08 02:31:32;;;;;;;4.80;3.50;;;;;;;1.16;96.78;99455.81;106197;1269;97978;-81
2024/02/08 02:34:19;;;;;;;11.90;8.40;;;;;;;1.15;96.73;99459.45;106273;1269;97973;-80
2024/02/08 02:37:04;;;;;;;14.60;8.50;;;;;;;1.12;96.79;99463.02;106281;1264;101735;-81
2024/02/08 02:39:52;;;;;;;17.20;8.70;;;;;;;1.11;96.88;99470.29;106275;1264;100313;-81
2024/02/08 02:42:38;;;;;;;30.10;14.10;;;;;;;1.12;97.02;99471.82;106297;1264;97914;-82
2024/02/08 02:45:28;;;;;;;21.60;11.40;;;;;;;1.12;96.88;99469.73;106127;1265;98645;-81
2024/02/08 02:48:14;;;;;;;16.60;8.10;;;;;;;1.10;96.81;99470.84;106259;1264;97809;-81
2024/02/08 02:51:01;;;;;;;8.40;4.80;;;;;;;1.05;96.77;99470.58;106179;1265;101587;-82
2024/02/08 02:53:47;;;;;;;10.70;4.70;;;;;;;1.03;97.08;99468.18;106237;1264;100459;-81
2024/02/08 02:56:32;;;;;;;6.90;3.90;;;;;;;1.04;97.23;99468.27;106361;1264;98031;-81
2024/02/08 02:59:18;;;;;;;6.10;3.80;;;;;;;1.05;97.37;99473.95;106369;1264;98743;-81
2024/02/08 03:02:04;;;;;;;4.40;3.10;;;;;;;1.06;97.62;99474.04;106291;1269;98037;-81
2024/02/08 03:04:49;;;;;;;5.90;3.70;;;;;;;1.07;97.57;99468.98;106213;1263;101556;-80
2024/02/08 03:07:35;;;;;;;7.70;3.80;;;;;;;1.09;97.67;99469.63;106260;1265;100400;-81
2024/02/08 03:10:22;;;;;;;8.90;3.30;;;;;;;1.08;97.54;99471.69;105898;1265;98406;-80
2024/02/08 03:13:10;;;;;;;8.40;3.40;;;;;;;1.07;97.55;99475.48;106107;1265;97872;-81
2024/02/08 03:15:56;;;;;;;10.10;3.00;;;;;;;1.06;97.61;99477.02;106128;1268;97884;-80
2024/02/08 03:18:46;;;;;;;10.70;4.90;;;;;;;1.05;97.58;99480.44;106059;1264;101301;-81
2024/02/08 03:21:35;;;;;;;4.70;3.60;;;;;;;1.04;97.46;99484.42;106111;1269;100559;-81
2024/02/08 03:24:24;;;;;;;6.90;3.30;;;;;;;1.05;97.73;99487.13;106237;1263;98651;-81
2024/02/08 03:27:13;;;;;;;15.40;4.50;;;;;;;1.07;97.71;99493.11;106242;1267;97768;-81
2024/02/08 03:30:02;;;;;;;8.10;3.70;;;;;;;1.09;97.98;99496.91;106101;1270;97749;-80
2024/02/08 03:32:55;;;;;;;8.00;3.40;;;;;;;1.11;98.00;99496.20;106346;1270;102040;-82
2024/02/08 03:35:45;;;;;;;7.90;3.80;;;;;;;1.12;97.98;99492.20;106369;1269;100458;-81
2024/02/08 03:38:33;;;;;;;6.50;3.90;;;;;;;1.15;97.96;99489.14;106348;1269;97861;-81
2024/02/08 03:41:18;;;;;;;7.40;3.40;;;;;;;1.13;97.93;99494.21;106376;1269;98014;-81
2024/02/08 03:44:04;;;;;;;5.10;3.20;;;;;;;1.12;98.01;99494.17;106396;1264;97891;-81
2024/02/08 03:46:53;;;;;;;5.20;3.30;;;;;;;1.09;97.60;99493.02;106292;1264;101425;-80
2024/02/08 03:49:49;;;;;;;7.00;3.90;;;;;;;1.06;97.22;99499.13;106327;1270;99240;-81
2024/02/08 03:52:37;;;;;;;7.30;3.40;;;;;;;1.04;97.05;99499.88;106325;1264;97846;-82
2024/02/08 03:55:26;;;;;;;6.00;3.80;;;;;;;1.04;96.91;99495.16;106269;1267;96044;-82
2024/02/08 03:58:14;;;;;;;7.40;4.50;;;;;;;1.01;96.59;99499.81;106376;1269;97984;-81
2024/02/08 04:01:00;;;;;;;4.40;3.90;;;;;;;1.00;96.38;99505.08;106272;1264;101351;-82
2024/02/08 04:04:29;;;;;;;7.20;3.60;;;;;;;0.98;96.32;99508.76;106229;1269;99102;-81
2024/02/08 04:07:14;;;;;;;7.90;4.50;;;;;;;0.96;96.40;99510.37;106249;1269;98070;-81
2024/02/08 04:10:18;;;;;;;7.60;5.20;;;;;;;0.94;96.27;99514.29;106217;1264;98093;-81
2024/02/08 04:56:11;;;;;;;8.80;3.70;;;;;;;0.86;96.57;99525.39;106320;1269;97953;-82
2024/02/08 04:58:58;;;;;;;11.10;5.10;;;;;;;0.85;96.66;99525.58;106236;1263;98067;-82
2024/02/08 05:01:44;;;;;;;13.80;7.00;;;;;;;0.85;96.87;99531.13;106336;1263;101473;-83
2024/02/08 05:04:29;;;;;;;14.50;7.70;;;;;;;0.87;96.95;99529.92;106121;1269;99223;-82
2024/02/08 05:07:15;;;;;;;16.50;8.60;;;;;;;0.86;96.75;99531.23;106210;1263;99135;-81
2024/02/08 05:10:01;;;;;;;16.80;9.20;;;;;;;0.82;96.76;99531.67;106230;1264;98534;-82
2024/02/08 05:12:47;;;;;;;15.30;7.90;;;;;;;0.82;96.89;99533.05;107261;1264;95888;-82
2024/02/08 05:15:33;;;;;;;17.60;7.40;;;;;;;0.81;97.02;99531.35;106200;1269;101970;-82
2024/02/08 05:18:22;;;;;;;15.30;6.70;;;;;;;0.79;96.91;99532.75;106287;1269;100339;-81
2024/02/08 05:21:09;;;;;;;13.90;6.70;;;;;;;0.76;96.92;99533.04;106239;1263;98576;-83
2024/02/08 05:23:58;;;;;;;13.10;6.90;;;;;;;0.76;97.10;99535.68;106678;1269;98074;-82
2024/02/08 05:26:44;;;;;;;8.90;5.20;;;;;;;0.75;97.02;99536.33;106152;1263;97864;-82
2024/02/08 05:29:32;;;;;;;12.70;5.10;;;;;;;0.73;96.95;99536.91;106314;1264;102654;-81
2024/02/08 05:32:23;;;;;;;12.00;6.30;;;;;;;0.70;97.04;99537.15;106301;1264;100574;-82
2024/02/08 05:35:13;;;;;;;9.40;5.10;;;;;;;0.71;97.27;99535.20;106242;1264;97901;-82
2024/02/08 05:38:00;;;;;;;13.60;5.80;;;;;;;0.73;97.37;99535.88;106191;1263;98061;-82
2024/02/08 05:40:46;;;;;;;11.50;7.60;;;;;;;0.73;97.29;99532.10;106123;1264;98677;-83
2024/02/08 05:43:41;;;;;;;16.60;8.60;;;;;;;0.75;97.35;99533.56;106323;1264;103280;-82
2024/02/08 05:46:29;;;;;;;23.30;11.20;;;;;;;0.73;97.22;99533.71;106383;1264;99146;-82
2024/02/08 05:49:15;;;;;;;22.80;12.30;;;;;;;0.72;97.27;99538.08;106263;1269;97991;-83
2024/02/08 05:52:05;;;;;;;18.80;11.10;;;;;;;0.71;97.25;99540.41;106291;1269;97971;-83
2024/02/08 05:54:52;;;;;;;23.00;11.60;;;;;;;0.72;97.36;99545.63;106230;1264;98719;-82
2024/02/08 05:57:44;;;;;;;19.90;11.60;;;;;;;0.73;97.53;99553.61;106213;1264;101462;-82
2024/02/08 06:00:35;;;;;;;27.50;17.60;;;;;;;0.74;97.42;99551.37;106284;1263;99189;-83
2024/02/08 06:03:33;;;;;;;18.20;12.00;;;;;;;0.73;97.30;99553.58;106218;1269;97842;-82
2024/02/08 06:06:33;;;;;;;16.60;8.70;;;;;;;0.71;97.46;99556.42;106385;1264;98074;-82
2024/02/08 06:12:46;;;;;;;16.20;8.10;;;;;;;0.68;97.52;99557.74;106320;1269;102091;-81
2024/02/08 06:15:34;;;;;;;14.90;7.20;;;;;;;0.66;97.56;99562.56;106314;1264;99952;-81
2024/02/08 06:18:25;;;;;;;13.90;7.40;;;;;;;0.65;97.73;99566.38;106178;1264;98939;-82
2024/02/08 06:21:13;;;;;;;13.40;7.10;;;;;;;0.65;97.89;99568.42;106284;1264;98043;-81
2024/02/08 06:24:19;;;;;;;12.80;7.10;;;;;;;0.66;97.95;99572.68;106328;1263;97878;-82
2024/02/08 06:27:13;;;;;;;13.50;7.50;;;;;;;0.67;98.09;99582.80;106316;1270;102460;-82
2024/02/08 06:30:07;;;;;;;14.50;7.40;;;;;;;0.68;98.18;99584.48;106282;1263;99731;-81
2024/02/08 06:33:07;;;;;;;18.40;7.90;;;;;;;0.66;98.13;99583.25;106351;1269;98918;-82
2024/02/08 06:35:56;;;;;;;17.10;7.50;;;;;;;0.64;98.19;99581.52;106304;1264;97958;-82
2024/02/08 06:38:51;;;;;;;19.30;8.60;;;;;;;0.64;98.26;99577.01;106165;1263;97796;-80
2024/02/08 06:41:52;;;;;;;19.10;8.40;;;;;;;0.65;98.42;99578.77;106253;1270;101468;-82
2024/02/08 07:39:46;;;;;;;19.20;9.30;;;;;;;0.97;99.99;99600.58;106439;1267;96621;-83
2024/02/08 07:42:41;;;;;;;17.30;8.60;;;;;;;1.00;100.00;99603.16;106254;1263;102118;-81
2024/02/08 07:45:26;;;;;;;20.10;8.70;;;;;;;1.01;99.99;99600.88;106304;1269;99922;-81
2024/02/08 07:48:13;;;;;;;15.70;7.30;;;;;;;1.04;99.97;99598.19;106369;1264;97939;-81
2024/02/08 07:51:02;;;;;;;16.00;9.10;;;;;;;1.04;99.92;99605.35;106416;1264;97879;-82
2024/02/08 07:53:53;;;;;;;20.80;8.60;;;;;;;1.03;99.92;99612.65;106449;1264;96222;-81
2024/02/08 07:56:49;;;;;;;23.90;9.00;;;;;;;1.04;100.00;99616.08;106462;1269;101376;-82
2024/02/08 07:59:35;;;;;;;21.90;11.10;;;;;;;1.11;100.00;99607.86;106338;1263;99339;-82
2024/02/08 08:02:23;;;;;;;26.40;12.70;;;;;;;1.13;100.00;99603.26;106303;1264;98525;-82
2024/02/08 08:05:14;;;;;;;28.50;12.30;;;;;;;1.15;100.00;99606.05;106055;1264;97976;-82
2024/02/08 08:08:01;;;;;;;71.60;26.60;;;;;;;1.16;99.90;99606.31;106318;1264;98583;-82
2024/02/08 08:10:47;;;;;;;27.80;13.80;;;;;;;1.15;99.88;99609.88;106245;1264;101531;-81
2024/02/08 08:17:07;;;;;;;24.70;10.60;;;;;;;1.20;100.00;99607.27;106312;1263;97884;-89
2024/02/08 08:19:45;;;;;;;16.70;8.10;;;;;;;1.25;100.00;99598.52;106451;1264;95974;-88
2024/02/08 08:25:28;;;;;;;15.50;8.00;;;;;;;1.30;100.00;99597.64;106099;1263;101440;-88
2024/02/08 08:28:30;;;;;;;18.80;9.30;;;;;;;1.34;100.00;99599.73;106446;1263;99800;-89
2024/02/08 08:37:39;;;;;;;26.80;13.10;;;;;;;1.45;100.00;99605.63;105310;1264;98529;-77
2024/02/08 08:40:25;;;;;;;21.30;10.30;;;;;;;1.44;99.83;99601.83;105385;1269;102047;-78
2024/02/08 08:43:19;;;;;;;20.80;11.60;;;;;;;1.43;99.81;99600.06;106862;1266;97898;-82
2024/02/08 08:46:10;;;;;;;23.00;10.00;;;;;;;1.45;99.86;99602.27;106280;1260;98975;-93
2024/02/08 08:48:56;;;;;;;22.60;9.80;;;;;;;1.49;99.97;99600.13;105862;1269;98157;-80
2024/02/08 08:51:50;;;;;;;20.80;11.30;;;;;;;1.53;99.98;99595.67;106450;1264;97009;-89
2024/02/08 08:54:42;;;;;;;21.60;10.00;;;;;;;1.56;100.00;99595.90;106458;1264;102153;-79
2024/02/08 08:57:27;;;;;;;16.30;8.80;;;;;;;1.61;100.00;99606.35;105970;1264;100344;-87
2024/02/08 09:00:20;;;;;;;19.00;10.10;;;;;;;1.62;100.00;99606.26;106403;1263;97941;-80
2024/02/08 09:03:10;;;;;;;16.00;9.00;;;;;;;1.63;99.99;99609.86;106421;1264;97914;-80
2024/02/08 09:05:57;;;;;;;19.30;8.70;;;;;;;1.65;99.98;99600.44;106505;1262;97962;-80
2024/02/08 09:08:46;;;;;;;15.10;8.00;;;;;;;1.69;100.00;99596.70;106231;1261;101396;-80
2024/02/08 09:11:37;;;;;;;22.90;10.20;;;;;;;1.74;100.00;99596.02;105866;1266;99198;-82
2024/02/08 09:14:30;;;;;;;22.30;11.00;;;;;;;1.78;100.00;99596.80;105900;1260;99161;-83
2024/02/08 09:17:25;;;;;;;16.40;7.80;;;;;;;1.78;99.65;99596.09;106101;1262;97869;-82
2024/02/08 09:20:19;;;;;;;22.10;10.90;;;;;;;1.79;99.73;99597.11;105966;1267;99673;-83
2024/02/08 09:23:17;;;;;;;15.20;8.30;;;;;;;1.82;99.86;99597.14;105924;1267;102796;-83
2024/02/08 09:26:05;;;;;;;22.80;14.00;;;;;;;1.88;100.00;99600.88;106037;1266;99209;-82
2024/02/08 09:28:52;;;;;;;20.20;9.30;;;;;;;1.94;99.99;99598.38;106048;1263;99085;-83
2024/02/08 09:31:38;;;;;;;22.80;9.30;;;;;;;1.97;99.74;99601.38;106238;1267;97995;-81
2024/02/08 09:34:36;;;;;;;23.80;10.20;;;;;;;1.99;99.74;99601.13;106338;1264;97892;-80
2024/02/08 09:37:22;;;;;;;18.10;8.90;;;;;;;2.03;99.79;99597.88;106417;1263;101871;-81
2024/02/08 09:40:18;;;;;;;17.90;9.00;;;;;;;2.06;99.20;99601.16;106341;1263;99139;-81
2024/02/08 09:43:16;;;;;;;17.70;9.00;;;;;;;2.07;99.28;99597.81;106549;1261;97727;-80
2024/02/08 09:46:28;;;;;;;14.70;8.20;;;;;;;2.11;99.18;99599.61;106244;1260;97933;-79
2024/02/08 09:49:16;;;;;;;23.20;10.20;;;;;;;2.16;99.42;99606.41;106257;1267;98030;-84
2024/02/08 09:52:16;;;;;;;19.10;9.20;;;;;;;2.22;99.27;99606.87;106718;1266;101404;-80
2024/02/08 09:55:18;;;;;;;18.70;9.20;;;;;;;2.26;99.30;99608.02;106585;1266;99092;-80
2024/02/08 09:58:10;;;;;;;17.00;6.70;;;;;;;2.29;99.04;99594.36;105863;1266;98642;-80
2024/02/08 10:00:58;;;;;;;15.40;6.90;;;;;;;2.31;98.77;99592.89;105858;1265;97982;-86
2024/02/08 10:03:47;;;;;;;11.60;6.20;;;;;;;2.32;98.57;99580.95;105786;1263;98053;-85
2024/02/08 10:06:45;;;;;;;10.50;6.30;;;;;;;2.32;98.09;99579.04;105784;1264;103770;-81
2024/02/08 10:09:40;;;;;;;12.60;6.30;;;;;;;2.31;98.19;99574.67;105838;1264;100029;-81
2024/02/08 10:12:40;;;;;;;13.90;5.60;;;;;;;2.34;98.27;99567.59;105910;1266;98986;-83
2024/02/08 10:15:39;;;;;;;13.70;5.90;;;;;;;2.37;98.47;99568.65;106170;1275;98766;-83
2024/02/08 10:18:37;;;;;;;12.50;6.00;;;;;;;2.40;98.37;99571.92;105877;1260;98004;-81
2024/02/08 10:21:28;;;;;;;10.90;5.50;;;;;;;2.43;97.88;99572.50;106074;1268;101564;-87
2024/02/08 10:24:44;;;;;;;15.20;6.40;;;;;;;2.44;97.66;99571.31;105967;1264;99348;-82
2024/02/08 10:27:35;;;;;;;10.70;5.50;;;;;;;2.47;97.74;99576.77;106102;1267;98614;-80
2024/02/08 10:30:25;;;;;;;;;;;;;;;2.51;97.65;99571.96;106134;1264;97869;-79
2024/02/08 10:33:24;;;;;;;28.80;10.90;;;;;;;2.53;97.56;99563.83;106275;1261;97859;-79
2024/02/08 10:36:15;;;;;;;72.20;31.80;;;;;;;2.55;97.29;99563.89;106608;1264;101439;-79
2024/02/08 10:39:08;;;;;;;25.90;14.70;;;;;;;2.57;97.09;99563.73;106523;1261;99205;-80
2024/02/08 10:41:57;;;;;;;15.20;8.50;;;;;;;2.57;96.76;99554.73;106649;1262;98350;-80
2024/02/08 10:44:44;;;;;;;13.40;7.80;;;;;;;2.59;96.66;99550.62;106294;1266;98043;-79
2024/02/08 10:47:39;;;;;;;14.10;7.70;;;;;;;2.61;96.41;99551.12;105582;1264;98373;-78
2024/02/08 10:50:28;;;;;;;12.70;6.30;;;;;;;2.62;96.05;99546.39;105594;1261;101406;-82
2024/02/08 10:53:18;;;;;;;9.60;4.60;;;;;;;2.65;95.74;99539.82;105774;1265;100253;-81
2024/02/08 10:56:24;;;;;;;;;;;;;;;2.66;95.44;99536.52;106619;1264;99091;-85
2024/02/08 10:59:14;;;;;;;8.10;4.00;;;;;;;2.66;95.34;99534.34;105743;1262;97959;-83
2024/02/08 11:02:02;;;;;;;8.90;3.80;;;;;;;2.68;94.86;99524.66;106141;1261;97907;-81
2024/02/08 11:05:12;;;;;;;11.00;5.30;;;;;;;2.71;94.96;99520.93;106465;1262;102628;-81
2024/02/08 11:07:54;;;;;;;8.00;3.80;;;;;;;2.74;94.79;99516.71;106311;1261;99382;-81
2024/02/08 11:10:45;;;;;;;10.60;4.30;;;;;;;2.78;94.82;99517.02;106344;1261;97969;-81
2024/02/08 11:13:37;;;;;;;8.00;4.00;;;;;;;2.81;94.40;99509.34;106437;1262;98972;-81
2024/02/08 11:16:33;;;;;;;15.20;8.00;;;;;;;2.83;94.21;99508.56;106295;1263;98528;-79
2024/02/08 11:19:19;;;;;;;26.10;11.30;;;;;;;2.86;93.97;99513.84;106330;1264;102601;-85
2024/02/08 11:22:24;;;;;;;28.20;13.00;;;;;;;2.90;93.89;99516.10;106006;1263;99778;-84
2024/02/08 11:25:19;;;;;;;12.60;6.70;;;;;;;2.93;93.65;99520.70;106124;1263;97897;-84
2024/02/08 11:28:12;;;;;;;14.00;5.00;;;;;;;2.96;93.67;99530.77;106633;1262;97925;-78
2024/02/08 11:31:03;;;;;;;13.90;6.00;;;;;;;3.00;93.78;99531.77;105697;1262;98591;-88
2024/02/08 11:33:50;;;;;;;21.50;10.20;;;;;;;3.02;93.32;99521.83;106335;1262;101543;-84
2024/02/08 11:36:36;;;;;;;9.10;4.20;;;;;;;3.03;92.75;99512.39;106435;1261;100472;-83
2024/02/08 11:39:26;;;;;;;8.80;3.70;;;;;;;3.04;92.48;99517.23;106470;1262;98547;-80
2024/02/08 11:42:16;;;;;;;;;;;;;;;3.05;92.52;99515.14;106226;1261;97995;-79
2024/02/08 11:45:08;;;;;;;8.00;3.10;;;;;;;3.04;92.62;99521.72;106283;1261;97754;-80
2024/02/08 11:47:58;;;;;;;13.30;4.60;;;;;;;3.07;92.53;99510.71;106183;1264;101496;-79
2024/02/08 11:50:47;;;;;;;10.70;4.40;;;;;;;3.10;92.59;99507.02;107622;1262;99241;-80
2024/02/08 11:53:32;;;;;;;9.90;4.60;;;;;;;3.15;92.80;99499.63;106805;1261;99024;-79
2024/02/08 11:56:20;;;;;;;13.90;7.70;;;;;;;3.20;92.71;99494.00;106257;1264;97884;-79
2024/02/08 11:59:07;;;;;;;12.20;4.80;;;;;;;3.23;92.38;99485.73;106236;1262;97925;-85
2024/02/08 12:01:54;;;;;;;8.30;4.60;;;;;;;3.23;92.18;99477.52;106184;1264;103525;-78
2024/02/08 12:04:39;;;;;;;33.40;14.20;;;;;;;3.25;91.94;99476.50;105818;1262;100141;-78
2024/02/08 12:07:25;;;;;;;16.30;8.00;;;;;;;3.26;92.14;99471.94;105674;1263;99032;-83
2024/02/08 12:10:15;;;;;;;16.20;6.50;;;;;;;3.28;92.50;99463.10;105799;1262;98066;-84
2024/02/08 12:13:00;;;;;;;10.00;5.50;;;;;;;3.30;92.47;99468.85;105962;1263;98047;-84
2024/02/08 12:15:55;;;;;;;11.60;5.50;;;;;;;3.32;92.80;99468.45;106182;1261;103311;-85
2024/02/08 12:18:41;;;;;;;17.80;6.90;;;;;;;3.33;92.52;99465.55;105833;1263;100543;-79
2024/02/08 12:21:27;;;;;;;14.00;5.50;;;;;;;3.36;92.60;99465.05;105770;1262;97901;-79
2024/02/08 12:24:16;;;;;;;15.40;5.80;;;;;;;3.38;92.75;99467.59;105595;1264;97925;-77
2024/02/08 12:27:12;;;;;;;13.90;6.50;;;;;;;3.41;93.06;99466.19;105354;1261;97895;-78
2024/02/08 12:29:58;;;;;;;19.50;9.80;;;;;;;3.44;92.49;99464.80;105388;1267;101643;-77
2024/02/08 12:32:44;;;;;;;21.20;11.70;;;;;;;3.44;91.82;99461.06;105387;1260;99146;-77
2024/02/08 12:35:30;;;;;;;11.50;6.40;;;;;;;3.43;91.29;99459.67;105240;1261;98047;-76
2024/02/08 12:38:17;;;;;;;19.70;8.60;;;;;;;3.41;90.95;99459.10;105226;1265;99182;-77
2024/02/08 12:41:06;;;;;;;12.50;5.60;;;;;;;3.41;91.12;99449.80;105295;1262;97743;-77
2024/02/08 12:43:52;;;;;;;10.50;6.20;;;;;;;3.44;92.14;99451.59;105248;1264;101346;-77
2024/02/08 12:46:38;;;;;;;10.70;6.40;;;;;;;3.56;93.36;99449.89;105352;1266;99105;-77
2024/02/08 12:49:24;;;;;;;14.00;5.70;;;;;;;3.62;91.75;99450.39;105235;1261;97980;-77
2024/02/08 12:52:13;;;;;;;27.30;18.20;;;;;;;3.63;91.02;99447.52;105311;1261;97970;-77
2024/02/08 12:55:00;;;;;;;17.90;11.10;;;;;;;3.61;90.48;99447.21;105751;1260;98483;-84
2024/02/08 12:57:57;;;;;;;15.90;7.40;;;;;;;3.59;90.35;99447.41;106247;1261;102569;-84
2024/02/08 13:00:56;;;;;;;15.80;6.40;;;;;;;3.57;90.46;99442.13;105801;1260;99082;-84
2024/02/08 13:03:42;;;;;;;14.10;5.00;;;;;;;3.55;90.44;99434.33;105959;1261;98006;-83
2024/02/08 13:06:28;;;;;;;12.30;5.30;;;;;;;3.52;90.44;99425.77;105812;1264;97926;-82
2024/02/08 13:09:26;;;;;;;11.80;5.60;;;;;;;3.51;90.45;99423.60;105865;1264;98538;-81
2024/02/08 13:12:20;;;;;;;12.30;5.50;;;;;;;3.50;90.66;99424.36;105828;1267;101506;-82
2024/02/08 13:15:07;;;;;;;12.30;5.10;;;;;;;3.50;90.61;99420.94;106024;1262;99248;-83
2024/02/08 13:17:56;;;;;;;11.70;4.40;;;;;;;3.49;90.14;99418.65;106017;1264;97915;-82
2024/02/08 13:20:42;;;;;;;15.50;5.80;;;;;;;3.49;89.92;99413.19;106110;1261;97895;-84
2024/02/08 13:23:30;;;;;;;11.70;4.40;;;;;;;3.53;90.22;99415.15;106178;1262;96440;-86
2024/02/08 13:26:22;;;;;;;7.70;4.10;;;;;;;3.57;90.30;99415.71;106249;1262;103333;-87
2024/02/08 13:29:11;;;;;;;11.10;4.70;;;;;;;3.60;90.16;99413.06;106119;1261;99210;-86
2024/02/08 13:31:57;;;;;;;9.40;5.00;;;;;;;3.62;89.78;99411.73;106233;1265;98042;-83
2024/02/08 13:34:42;;;;;;;14.80;5.40;;;;;;;3.63;89.63;99410.20;105886;1263;97954;-87
2024/02/08 13:37:28;;;;;;;13.60;5.50;;;;;;;3.64;89.76;99406.76;106176;1262;98426;-81
2024/02/08 13:40:15;;;;;;;19.30;8.60;;;;;;;3.66;89.52;99403.89;106396;1261;101469;-82
2024/02/08 13:43:00;;;;;;;14.70;6.90;;;;;;;3.68;89.38;99405.21;106461;1261;99135;-82
2024/02/08 13:45:46;;;;;;;10.50;4.50;;;;;;;3.70;89.19;99401.70;106305;1260;97947;-81
2024/02/08 13:48:32;;;;;;;13.50;5.10;;;;;;;3.70;88.99;99399.58;106241;1261;97845;-88
2024/02/08 13:51:18;;;;;;;14.70;6.30;;;;;;;3.69;88.68;99395.77;106256;1261;98402;-85
2024/02/08 13:54:04;;;;;;;12.40;5.30;;;;;;;3.71;88.58;99400.54;106172;1262;102743;-87
2024/02/08 13:56:52;;;;;;;10.80;5.20;;;;;;;3.71;88.41;99400.38;106285;1266;99197;-79
2024/02/08 13:59:44;;;;;;;10.90;5.30;;;;;;;3.70;88.51;99398.19;106277;1261;97965;-79
2024/02/08 14:02:32;;;;;;;11.20;6.30;;;;;;;3.68;88.59;99395.35;105908;1261;96701;-79
2024/02/08 14:05:25;;;;;;;11.70;5.60;;;;;;;3.65;88.28;99386.36;105948;1260;98537;-80
2024/02/08 14:08:16;;;;;;;16.20;5.80;;;;;;;3.64;88.88;99392.33;106159;1267;101335;-80
2024/02/08 14:11:03;;;;;;;11.10;5.50;;;;;;;3.62;88.94;99389.48;106450;1264;99193;-81
2024/02/08 14:13:53;;;;;;;13.10;5.70;;;;;;;3.59;88.72;99391.15;106402;1264;98753;-80
2024/02/08 14:16:40;;;;;;;13.10;6.30;;;;;;;3.54;88.57;99392.35;106500;1261;98303;-81
2024/02/08 14:19:36;;;;;;;14.90;6.90;;;;;;;3.51;88.88;99390.02;106542;1260;98068;-80
2024/02/08 14:22:24;;;;;;;18.10;6.70;;;;;;;3.50;88.97;99393.73;106180;1260;101379;-80
2024/02/08 14:25:23;;;;;;;13.00;5.60;;;;;;;3.45;88.81;99398.55;106341;1261;100353;-81
2024/02/08 14:28:12;;;;;;;11.90;4.80;;;;;;;3.42;88.86;99400.84;106469;1260;98489;-80
2024/02/08 14:31:01;;;;;;;12.80;4.20;;;;;;;3.39;88.66;99401.77;106601;1261;96993;-81
2024/02/08 14:33:47;;;;;;;10.20;4.90;;;;;;;3.37;88.51;99404.33;106407;1261;98375;-81
2024/02/08 14:36:33;;;;;;;10.20;5.80;;;;;;;3.35;88.52;99407.61;106440;1262;101321;-80
2024/02/08 14:39:28;;;;;;;10.20;5.90;;;;;;;3.31;88.09;99398.15;106103;1264;99645;-78
2024/02/08 14:42:17;;;;;;;11.90;5.30;;;;;;;3.27;88.01;99389.83;105501;1260;99041;-77
2024/02/08 14:45:11;;;;;;;11.80;5.40;;;;;;;3.24;88.27;99386.60;105550;1261;97310;-77
2024/02/08 14:48:00;;;;;;;14.00;7.40;;;;;;;3.23;88.43;99387.40;105544;1265;97978;-78
2024/02/08 14:50:49;;;;;;;19.30;7.90;;;;;;;3.22;88.50;99384.70;105446;1261;101424;-84
2024/02/08 14:53:40;;;;;;;14.00;6.30;;;;;;;3.20;88.72;99380.66;105975;1265;101436;-86
2024/02/08 14:56:27;;;;;;;22.20;9.30;;;;;;;3.20;89.06;99377.48;105744;1262;98008;-84
2024/02/08 14:59:13;;;;;;;30.00;12.50;;;;;;;3.19;88.91;99369.58;105708;1264;98573;-84
2024/02/08 15:02:12;;;;;;;28.60;12.40;;;;;;;3.17;89.08;99364.84;105922;1261;97960;-84